TimeCDT,TemperatureF,Dew PointF,Humidity,Sea Level PressureIn,VisibilityMPH,Wind Direction,Wind SpeedMPH,Gust SpeedMPH,PrecipitationIn,Events,Conditions,WindDirDegrees,DateUTC
12:53 AM,34.0,21.0,59,30.36,10.0,NNE,8.1,-,N/A,,Overcast,20,2014-03-25 05:53:00
1:53 AM,30.9,19.9,64,30.40,10.0,North,10.4,-,N/A,,Overcast,10,2014-03-25 06:53:00
2:53 AM,30.9,19.9,64,30.41,10.0,North,10.4,-,N/A,,Overcast,360,2014-03-25 07:53:00
3:53 AM,28.9,21.0,72,30.42,10.0,North,13.8,-,N/A,,Overcast,360,2014-03-25 08:53:00
4:53 AM,28.9,19.9,69,30.41,10.0,North,6.9,-,N/A,,Overcast,350,2014-03-25 09:53:00
5:53 AM,28.9,19.9,69,30.41,10.0,North,6.9,-,N/A,,Overcast,360,2014-03-25 10:53:00
6:53 AM,28.0,19.0,69,30.43,10.0,NE,10.4,-,N/A,,Overcast,40,2014-03-25 11:53:00
7:53 AM,27.0,12.0,53,30.46,10.0,NNE,10.4,-,N/A,,Overcast,20,2014-03-25 12:53:00
8:53 AM,27.0,10.9,51,30.47,10.0,NNE,5.8,-,N/A,,Overcast,30,2014-03-25 13:53:00
9:53 AM,28.0,9.0,45,30.47,10.0,North,8.1,-,N/A,,Mostly Cloudy,10,2014-03-25 14:53:00
10:53 AM,30.0,8.1,40,30.45,10.0,Variable,3.5,-,N/A,,Clear,0,2014-03-25 15:53:00
11:53 AM,33.1,10.0,38,30.42,10.0,NNW,3.5,-,N/A,,Clear,330,2014-03-25 16:53:00
12:53 PM,36.0,12.0,37,30.37,10.0,North,-9999.0,-,N/A,,Clear,0,2014-03-25 17:53:00
1:53 PM,39.9,14.0,35,30.31,10.0,SSE,8.1,-,N/A,,Clear,150,2014-03-25 18:53:00
2:53 PM,42.1,18.0,38,30.25,10.0,South,12.7,-,N/A,,Clear,170,2014-03-25 19:53:00
3:53 PM,46.0,21.0,37,30.20,10.0,South,15.0,21.9,N/A,,Clear,170,2014-03-25 20:53:00
4:53 PM,48.9,21.9,35,30.15,10.0,South,17.3,24.2,N/A,,Clear,180,2014-03-25 21:53:00
5:53 PM,48.9,23.0,36,30.10,10.0,South,19.6,27.6,N/A,,Clear,190,2014-03-25 22:53:00
6:53 PM,48.0,23.0,37,30.08,10.0,SSE,17.3,-,N/A,,Clear,160,2014-03-25 23:53:00
7:53 PM,44.1,24.1,45,30.05,10.0,SE,11.5,-,N/A,,Clear,140,2014-03-26 00:53:00
8:53 PM,39.9,24.1,53,30.04,10.0,SE,13.8,-,N/A,,Clear,130,2014-03-26 01:53:00
9:53 PM,37.0,23.0,57,30.04,10.0,ESE,11.5,-,N/A,,Clear,110,2014-03-26 02:53:00
10:53 PM,36.0,23.0,59,30.02,10.0,ESE,15.0,-,N/A,,Clear,120,2014-03-26 03:53:00
11:53 PM,34.0,21.9,61,30.00,10.0,ESE,11.5,-,N/A,,Clear,110,2014-03-26 04:53:00